sensor_id;sensor_type;location;lat;lon;timestamp;pressure;altitude;pressure_sealevel;temperature;humidity
40850;BME280;26571;41.610;25.380;2023-04-23T00:01:26;98324.81;;;11.46;100.00
40850;BME280;26571;41.610;25.380;2023-04-23T00:03:55;98328.09;;;11.48;100.00
40850;BME280;26571;41.610;25.380;2023-04-23T00:06:21;98294.03;;;11.15;100.00
40850;BME280;26571;41.610;25.380;2023-04-23T00:08:47;98323.75;;;11.32;100.00
40850;BME280;26571;41.610;25.380;2023-04-23T00:11:16;98289.13;;;11.04;100.00
40850;BME280;26571;41.610;25.380;2023-04-23T00:13:42;98328.53;;;11.28;100.00
40850;BME280;26571;41.610;25.380;2023-04-23T00:16:08;98327.59;;;11.21;100.00
40850;BME280;26571;41.610;25.380;2023-04-23T00:18:35;98323.94;;;11.22;100.00
40850;BME280;26571;41.610;25.380;2023-04-23T00:21:00;98324.66;;;11.16;100.00
40850;BME280;26571;41.610;25.380;2023-04-23T00:23:27;98329.59;;;11.19;100.00
40850;BME280;26571;41.610;25.380;2023-04-23T00:25:52;98332.75;;;11.15;100.00
40850;BME280;26571;41.610;25.380;2023-04-23T00:28:18;98327.91;;;11.18;100.00
40850;BME280;26571;41.610;25.380;2023-04-23T00:30:43;98328.75;;;11.19;100.00
40850;BME280;26571;41.610;25.380;2023-04-23T00:33:09;98331.22;;;11.20;100.00
40850;BME280;26571;41.610;25.380;2023-04-23T00:35:34;98329.91;;;11.16;100.00
40850;BME280;26571;41.610;25.380;2023-04-23T00:38:00;98337.03;;;11.07;100.00
40850;BME280;26571;41.610;25.380;2023-04-23T00:40:25;98336.72;;;11.02;100.00
40850;BME280;26571;41.610;25.380;2023-04-23T00:42:51;98328.72;;;10.87;100.00
40850;BME280;26571;41.610;25.380;2023-04-23T00:45:18;98290.94;;;10.72;100.00
40850;BME280;26571;41.610;25.380;2023-04-23T00:47:44;98336.09;;;11.00;100.00
40850;BME280;26571;41.610;25.380;2023-04-23T00:50:10;98340.19;;;11.03;100.00
40850;BME280;26571;41.610;25.380;2023-04-23T00:52:37;98328.13;;;11.08;100.00
40850;BME280;26571;41.610;25.380;2023-04-23T00:55:05;98339.03;;;11.05;100.00
40850;BME280;26571;41.610;25.380;2023-04-23T00:57:31;98332.59;;;11.08;100.00
40850;BME280;26571;41.610;25.380;2023-04-23T00:59:58;98340.66;;;11.06;100.00
40850;BME280;26571;41.610;25.380;2023-04-23T01:02:25;98343.94;;;11.08;100.00
40850;BME280;26571;41.610;25.380;2023-04-23T01:04:53;98342.47;;;11.14;100.00
40850;BME280;26571;41.610;25.380;2023-04-23T01:07:19;98339.84;;;11.06;100.00
40850;BME280;26571;41.610;25.380;2023-04-23T01:09:45;98335.28;;;11.00;100.00
40850;BME280;26571;41.610;25.380;2023-04-23T01:12:12;98339.72;;;10.99;100.00
40850;BME280;26571;41.610;25.380;2023-04-23T01:14:38;98338.06;;;10.98;100.00
40850;BME280;26571;41.610;25.380;2023-04-23T01:17:04;98333.59;;;10.99;100.00
40850;BME280;26571;41.610;25.380;2023-04-23T01:19:30;98332.94;;;11.05;100.00
40850;BME280;26571;41.610;25.380;2023-04-23T01:21:56;98333.88;;;11.12;100.00
40850;BME280;26571;41.610;25.380;2023-04-23T01:24:25;98339.81;;;11.14;100.00
40850;BME280;26571;41.610;25.380;2023-04-23T01:26:52;98283.94;;;10.87;100.00
40850;BME280;26571;41.610;25.380;2023-04-23T01:29:18;98322.34;;;11.13;100.00
40850;BME280;26571;41.610;25.380;2023-04-23T01:31:44;98329.81;;;11.09;100.00
40850;BME280;26571;41.610;25.380;2023-04-23T01:34:10;98325.34;;;11.10;100.00
40850;BME280;26571;41.610;25.380;2023-04-23T01:36:36;98329.66;;;11.03;100.00
40850;BME280;26571;41.610;25.380;2023-04-23T01:39:02;98325.41;;;10.94;100.00
40850;BME280;26571;41.610;25.380;2023-04-23T01:41:27;98331.63;;;11.01;100.00
40850;BME280;26571;41.610;25.380;2023-04-23T01:43:53;98323.06;;;10.99;100.00
40850;BME280;26571;41.610;25.380;2023-04-23T01:46:19;98286.94;;;10.84;100.00
40850;BME280;26571;41.610;25.380;2023-04-23T01:48:45;98339.53;;;11.09;100.00
40850;BME280;26571;41.610;25.380;2023-04-23T01:51:11;98345.81;;;11.00;100.00
40850;BME280;26571;41.610;25.380;2023-04-23T01:53:36;98342.88;;;10.95;100.00
40850;BME280;26571;41.610;25.380;2023-04-23T01:56:02;98343.88;;;10.85;100.00
40850;BME280;26571;41.610;25.380;2023-04-23T01:58:28;98339.75;;;10.83;100.00
40850;BME280;26571;41.610;25.380;2023-04-23T02:00:53;98342.56;;;10.81;100.00
40850;BME280;26571;41.610;25.380;2023-04-23T02:03:18;98344.38;;;10.89;100.00
40850;BME280;26571;41.610;25.380;2023-04-23T02:05:44;98341.56;;;10.91;100.00
40850;BME280;26571;41.610;25.380;2023-04-23T02:08:10;98351.28;;;10.82;100.00
40850;BME280;26571;41.610;25.380;2023-04-23T02:10:35;98343.56;;;10.80;100.00
40850;BME280;26571;41.610;25.380;2023-04-23T02:13:01;98339.94;;;10.81;100.00
40850;BME280;26571;41.610;25.380;2023-04-23T02:15:27;98346.53;;;10.85;100.00
40850;BME280;26571;41.610;25.380;2023-04-23T02:17:52;98322.84;;;10.77;100.00
40850;BME280;26571;41.610;25.380;2023-04-23T02:20:18;98346.16;;;10.88;100.00
40850;BME280;26571;41.610;25.380;2023-04-23T02:22:45;98341.38;;;10.92;100.00
40850;BME280;26571;41.610;25.380;2023-04-23T02:25:11;98354.34;;;11.02;100.00
40850;BME280;26571;41.610;25.380;2023-04-23T02:27:40;98346.97;;;10.97;100.00
40850;BME280;26571;41.610;25.380;2023-04-23T02:30:07;98347.63;;;10.99;100.00
40850;BME280;26571;41.610;25.380;2023-04-23T02:32:33;98351.06;;;11.00;100.00
40850;BME280;26571;41.610;25.380;2023-04-23T02:34:58;98349.91;;;11.02;100.00
40850;BME280;26571;41.610;25.380;2023-04-23T02:37:26;98351.06;;;11.00;100.00
40850;BME280;26571;41.610;25.380;2023-04-23T02:39:51;98346.97;;;10.97;100.00
40850;BME280;26571;41.610;25.380;2023-04-23T02:42:17;98345.31;;;10.96;100.00
40850;BME280;26571;41.610;25.380;2023-04-23T02:44:42;98350.22;;;11.07;100.00
40850;BME280;26571;41.610;25.380;2023-04-23T02:47:07;98344.31;;;11.05;100.00
40850;BME280;26571;41.610;25.380;2023-04-23T02:49:33;98347.44;;;11.01;100.00
40850;BME280;26571;41.610;25.380;2023-04-23T02:51:58;98346.06;;;11.13;100.00
40850;BME280;26571;41.610;25.380;2023-04-23T02:54:24;98350.88;;;11.09;100.00
40850;BME280;26571;41.610;25.380;2023-04-23T02:56:49;98354.97;;;11.12;100.00
40850;BME280;26571;41.610;25.380;2023-04-23T02:59:15;98353.97;;;11.13;100.00
40850;BME280;26571;41.610;25.380;2023-04-23T03:01:41;98355.31;;;11.09;100.00
40850;BME280;26571;41.610;25.380;2023-04-23T03:04:06;98359.63;;;10.94;100.00
40850;BME280;26571;41.610;25.380;2023-04-23T03:06:32;98354.03;;;10.97;100.00
40850;BME280;26571;41.610;25.380;2023-04-23T03:09:00;98356.16;;;11.01;100.00
40850;BME280;26571;41.610;25.380;2023-04-23T03:11:25;98358.97;;;11.00;100.00
40850;BME280;26571;41.610;25.380;2023-04-23T03:13:51;98360.25;;;11.04;100.00
40850;BME280;26571;41.610;25.380;2023-04-23T03:16:16;98357.28;;;11.07;100.00
40850;BME280;26571;41.610;25.380;2023-04-23T03:18:41;98367.22;;;10.97;100.00
40850;BME280;26571;41.610;25.380;2023-04-23T03:21:07;98364.56;;;11.05;100.00
40850;BME280;26571;41.610;25.380;2023-04-23T03:23:32;98367.53;;;11.02;100.00
40850;BME280;26571;41.610;25.380;2023-04-23T03:25:57;98367.34;;;11.03;100.00
40850;BME280;26571;41.610;25.380;2023-04-23T03:28:23;98372.16;;;11.00;100.00
40850;BME280;26571;41.610;25.380;2023-04-23T03:30:49;98373.78;;;11.01;100.00
40850;BME280;26571;41.610;25.380;2023-04-23T03:33:14;98373.75;;;11.09;100.00
40850;BME280;26571;41.610;25.380;2023-04-23T03:35:40;98372.41;;;11.13;100.00
40850;BME280;26571;41.610;25.380;2023-04-23T03:38:05;98393.47;;;11.13;100.00
40850;BME280;26571;41.610;25.380;2023-04-23T03:40:31;98379.34;;;11.14;100.00
40850;BME280;26571;41.610;25.380;2023-04-23T03:42:57;98381.13;;;11.13;100.00
40850;BME280;26571;41.610;25.380;2023-04-23T03:45:22;98385.88;;;11.18;100.00
40850;BME280;26571;41.610;25.380;2023-04-23T03:47:48;98387.19;;;11.22;100.00
40850;BME280;26571;41.610;25.380;2023-04-23T03:50:13;98384.75;;;11.21;100.00
40850;BME280;26571;41.610;25.380;2023-04-23T03:52:39;98386.56;;;11.20;100.00
40850;BME280;26571;41.610;25.380;2023-04-23T03:55:05;98384.75;;;11.21;100.00
40850;BME280;26571;41.610;25.380;2023-04-23T03:57:31;98384.56;;;11.22;100.00
40850;BME280;26571;41.610;25.380;2023-04-23T03:59:56;98383.84;;;11.36;100.00
40850;BME280;26571;41.610;25.380;2023-04-23T04:02:22;98381.50;;;11.42;100.00
40850;BME280;26571;41.610;25.380;2023-04-23T04:04:47;98391.75;;;11.36;100.00
40850;BME280;26571;41.610;25.380;2023-04-23T04:07:15;98393.38;;;11.37;100.00
40850;BME280;26571;41.610;25.380;2023-04-23T04:09:41;98396.00;;;11.37;100.00
40850;BME280;26571;41.610;25.380;2023-04-23T04:12:06;98391.34;;;11.48;100.00
40850;BME280;26571;41.610;25.380;2023-04-23T04:14:32;98390.84;;;11.52;100.00
40850;BME280;26571;41.610;25.380;2023-04-23T04:16:58;98397.59;;;11.55;100.00
40850;BME280;26571;41.610;25.380;2023-04-23T04:19:23;98395.69;;;11.41;100.00
40850;BME280;26571;41.610;25.380;2023-04-23T04:21:49;98405.31;;;11.56;100.00
40850;BME280;26571;41.610;25.380;2023-04-23T04:24:16;98400.88;;;11.57;100.00
40850;BME280;26571;41.610;25.380;2023-04-23T04:26:43;98403.47;;;11.65;100.00
40850;BME280;26571;41.610;25.380;2023-04-23T04:29:09;98402.47;;;11.66;100.00
40850;BME280;26571;41.610;25.380;2023-04-23T04:31:35;98409.22;;;11.69;100.00
40850;BME280;26571;41.610;25.380;2023-04-23T04:34:01;98417.53;;;11.80;100.00
40850;BME280;26571;41.610;25.380;2023-04-23T04:36:27;98409.34;;;11.75;100.00
40850;BME280;26571;41.610;25.380;2023-04-23T04:38:53;98410.31;;;11.82;100.00
40850;BME280;26571;41.610;25.380;2023-04-23T04:41:20;98420.75;;;11.99;100.00
40850;BME280;26571;41.610;25.380;2023-04-23T04:43:46;98408.53;;;11.98;100.00
40850;BME280;26571;41.610;25.380;2023-04-23T04:46:12;98421.34;;;12.09;100.00
40850;BME280;26571;41.610;25.380;2023-04-23T04:48:38;98416.38;;;12.14;100.00
40850;BME280;26571;41.610;25.380;2023-04-23T04:51:03;98426.00;;;12.45;100.00
40850;BME280;26571;41.610;25.380;2023-04-23T04:53:29;98405.06;;;12.58;100.00
40850;BME280;26571;41.610;25.380;2023-04-23T04:55:54;98377.06;;;12.86;100.00
40850;BME280;26571;41.610;25.380;2023-04-23T04:58:19;98425.34;;;13.90;100.00
40850;BME280;26571;41.610;25.380;2023-04-23T05:00:45;98427.59;;;14.79;100.00
40850;BME280;26571;41.610;25.380;2023-04-23T05:03:13;98429.94;;;15.30;96.63
40850;BME280;26571;41.610;25.380;2023-04-23T05:05:38;98436.38;;;15.56;91.34
40850;BME280;26571;41.610;25.380;2023-04-23T05:08:04;98445.19;;;15.63;87.30
40850;BME280;26571;41.610;25.380;2023-04-23T05:10:29;98447.78;;;15.56;85.13
40850;BME280;26571;41.610;25.380;2023-04-23T05:12:56;98439.81;;;15.49;86.45
40850;BME280;26571;41.610;25.380;2023-04-23T05:15:22;98441.88;;;15.54;85.35
40850;BME280;26571;41.610;25.380;2023-04-23T05:17:47;98450.88;;;15.60;83.40
40850;BME280;26571;41.610;25.380;2023-04-23T05:20:14;98437.56;;;15.46;81.73
40850;BME280;26571;41.610;25.380;2023-04-23T05:22:40;98446.75;;;15.50;82.73
40850;BME280;26571;41.610;25.380;2023-04-23T05:25:07;98446.59;;;15.59;81.92
40850;BME280;26571;41.610;25.380;2023-04-23T05:27:33;98455.56;;;15.58;81.62
40850;BME280;26571;41.610;25.380;2023-04-23T05:30:04;98445.28;;;15.41;82.16
40850;BME280;26571;41.610;25.380;2023-04-23T05:32:30;98443.34;;;16.24;85.76
40850;BME280;26571;41.610;25.380;2023-04-23T05:34:56;98460.97;;;18.15;76.07
40850;BME280;26571;41.610;25.380;2023-04-23T05:37:21;98462.47;;;20.21;65.92
40850;BME280;26571;41.610;25.380;2023-04-23T05:39:47;98455.22;;;22.09;57.84
40850;BME280;26571;41.610;25.380;2023-04-23T05:42:12;98460.69;;;23.48;51.58
40850;BME280;26571;41.610;25.380;2023-04-23T05:44:38;98445.34;;;24.74;46.68
40850;BME280;26571;41.610;25.380;2023-04-23T05:47:06;98451.13;;;25.88;43.27
40850;BME280;26571;41.610;25.380;2023-04-23T05:49:31;98449.09;;;26.76;39.67
40850;BME280;26571;41.610;25.380;2023-04-23T05:51:57;98447.19;;;26.97;38.40
40850;BME280;26571;41.610;25.380;2023-04-23T05:54:23;98428.28;;;26.21;37.35
40850;BME280;26571;41.610;25.380;2023-04-23T05:56:49;98448.31;;;25.62;37.17
40850;BME280;26571;41.610;25.380;2023-04-23T05:59:14;98455.25;;;24.68;38.46
40850;BME280;26571;41.610;25.380;2023-04-23T06:01:39;98454.34;;;24.04;37.69
40850;BME280;26571;41.610;25.380;2023-04-23T06:04:06;98464.72;;;23.51;40.20
40850;BME280;26571;41.610;25.380;2023-04-23T06:06:31;98465.91;;;23.38;40.11
40850;BME280;26571;41.610;25.380;2023-04-23T06:08:57;98459.06;;;22.58;42.78
40850;BME280;26571;41.610;25.380;2023-04-23T06:11:22;98463.75;;;22.34;46.71
40850;BME280;26571;41.610;25.380;2023-04-23T06:13:48;98463.97;;;22.04;43.94
40850;BME280;26571;41.610;25.380;2023-04-23T06:16:14;98436.19;;;21.53;46.74
40850;BME280;26571;41.610;25.380;2023-04-23T06:18:39;98465.63;;;21.18;47.88
40850;BME280;26571;41.610;25.380;2023-04-23T06:21:05;98455.66;;;20.90;49.65
40850;BME280;26571;41.610;25.380;2023-04-23T06:23:31;98452.50;;;20.70;50.17
40850;BME280;26571;41.610;25.380;2023-04-23T06:25:57;98456.59;;;20.84;49.46
40850;BME280;26571;41.610;25.380;2023-04-23T06:28:22;98464.13;;;21.22;50.02
40850;BME280;26571;41.610;25.380;2023-04-23T06:30:48;98456.91;;;21.23;47.82
40850;BME280;26571;41.610;25.380;2023-04-23T06:33:13;98463.28;;;21.57;47.50
40850;BME280;26571;41.610;25.380;2023-04-23T06:35:39;98466.16;;;21.67;41.94
40850;BME280;26571;41.610;25.380;2023-04-23T06:38:04;98463.59;;;21.84;43.87
40850;BME280;26571;41.610;25.380;2023-04-23T06:40:31;98449.78;;;21.92;41.83
40850;BME280;26571;41.610;25.380;2023-04-23T06:42:57;98464.06;;;22.38;44.39
40850;BME280;26571;41.610;25.380;2023-04-23T06:45:22;98459.13;;;22.80;39.86
40850;BME280;26571;41.610;25.380;2023-04-23T06:47:48;98460.28;;;21.93;40.83
40850;BME280;26571;41.610;25.380;2023-04-23T06:50:14;98471.13;;;21.87;37.78
40850;BME280;26571;41.610;25.380;2023-04-23T06:52:40;98471.63;;;22.12;39.83
40850;BME280;26571;41.610;25.380;2023-04-23T06:55:06;98460.50;;;22.49;36.52
40850;BME280;26571;41.610;25.380;2023-04-23T06:57:32;98470.16;;;21.53;38.65
40850;BME280;26571;41.610;25.380;2023-04-23T06:59:57;98460.25;;;21.65;39.99
40850;BME280;26571;41.610;25.380;2023-04-23T07:02:23;98462.06;;;21.36;39.63
40850;BME280;26571;41.610;25.380;2023-04-23T07:04:48;98462.97;;;21.06;39.77
40850;BME280;26571;41.610;25.380;2023-04-23T07:07:14;98468.31;;;20.83;39.66
40850;BME280;26571;41.610;25.380;2023-04-23T07:09:39;98471.81;;;20.42;37.56
40850;BME280;26571;41.610;25.380;2023-04-23T07:12:05;98469.66;;;20.50;39.58
40850;BME280;26571;41.610;25.380;2023-04-23T07:14:31;98475.97;;;20.56;38.26
40850;BME280;26571;41.610;25.380;2023-04-23T07:16:57;98475.16;;;20.67;36.92
40850;BME280;26571;41.610;25.380;2023-04-23T07:19:23;98480.63;;;20.30;39.30
40850;BME280;26571;41.610;25.380;2023-04-23T07:21:49;98469.47;;;20.03;38.29
40850;BME280;26571;41.610;25.380;2023-04-23T07:24:15;98480.28;;;20.38;37.32
40850;BME280;26571;41.610;25.380;2023-04-23T07:26:41;98468.78;;;20.80;38.06
40850;BME280;26571;41.610;25.380;2023-04-23T07:29:06;98440.66;;;20.89;34.84
40850;BME280;26571;41.610;25.380;2023-04-23T07:31:34;98470.88;;;21.01;39.26
40850;BME280;26571;41.610;25.380;2023-04-23T07:34:00;98455.88;;;21.12;36.14
40850;BME280;26571;41.610;25.380;2023-04-23T07:36:25;98472.19;;;21.34;34.60
40850;BME280;26571;41.610;25.380;2023-04-23T07:38:51;98436.31;;;20.88;35.43
40850;BME280;26571;41.610;25.380;2023-04-23T07:41:17;98466.94;;;21.39;36.91
40850;BME280;26571;41.610;25.380;2023-04-23T07:43:43;98471.69;;;21.25;33.92
40850;BME280;26571;41.610;25.380;2023-04-23T07:46:08;98454.69;;;20.31;36.31
40850;BME280;26571;41.610;25.380;2023-04-23T07:48:33;98469.69;;;20.62;36.53
40850;BME280;26571;41.610;25.380;2023-04-23T07:51:00;98422.56;;;20.07;35.99
40850;BME280;26571;41.610;25.380;2023-04-23T07:53:26;98472.94;;;19.55;37.24
40850;BME280;26571;41.610;25.380;2023-04-23T07:55:53;98468.34;;;19.62;38.76
40850;BME280;26571;41.610;25.380;2023-04-23T07:58:20;98464.91;;;19.37;37.85
40850;BME280;26571;41.610;25.380;2023-04-23T08:00:46;98460.84;;;19.34;37.53
40850;BME280;26571;41.610;25.380;2023-04-23T08:03:11;98469.22;;;19.56;38.19
40850;BME280;26571;41.610;25.380;2023-04-23T08:05:37;98464.59;;;20.00;36.29
40850;BME280;26571;41.610;25.380;2023-04-23T08:08:05;98471.81;;;19.81;37.84
40850;BME280;26571;41.610;25.380;2023-04-23T08:10:31;98461.25;;;20.05;37.95
40850;BME280;26571;41.610;25.380;2023-04-23T08:12:56;98455.25;;;19.91;36.78
40850;BME280;26571;41.610;25.380;2023-04-23T08:15:22;98450.97;;;20.32;39.79
40850;BME280;26571;41.610;25.380;2023-04-23T08:17:47;98449.09;;;20.62;36.35
40850;BME280;26571;41.610;25.380;2023-04-23T08:20:13;98452.25;;;20.83;38.35
40850;BME280;26571;41.610;25.380;2023-04-23T08:22:38;98451.59;;;21.34;38.11
40850;BME280;26571;41.610;25.380;2023-04-23T08:25:04;98446.78;;;21.25;35.12
40850;BME280;26571;41.610;25.380;2023-04-23T08:27:29;98452.84;;;21.08;34.22
40850;BME280;26571;41.610;25.380;2023-04-23T08:29:55;98444.34;;;20.64;34.87
40850;BME280;26571;41.610;25.380;2023-04-23T08:32:20;98453.41;;;20.63;35.79
40850;BME280;26571;41.610;25.380;2023-04-23T08:34:46;98451.69;;;19.79;36.69
40850;BME280;26571;41.610;25.380;2023-04-23T08:37:11;98451.78;;;19.35;37.72
40850;BME280;26571;41.610;25.380;2023-04-23T08:39:37;98451.41;;;19.32;36.80
40850;BME280;26571;41.610;25.380;2023-04-23T08:42:48;98450.97;;;19.35;37.95
40850;BME280;26571;41.610;25.380;2023-04-23T08:45:14;98446.38;;;19.05;37.41
40850;BME280;26571;41.610;25.380;2023-04-23T08:47:41;98438.31;;;18.87;36.15
40850;BME280;26571;41.610;25.380;2023-04-23T08:50:09;98441.88;;;18.99;37.21
40850;BME280;26571;41.610;25.380;2023-04-23T08:52:38;98415.78;;;18.83;37.13
40850;BME280;26571;41.610;25.380;2023-04-23T08:55:06;98446.06;;;18.95;37.94
40850;BME280;26571;41.610;25.380;2023-04-23T08:57:36;98442.19;;;18.91;37.90
40850;BME280;26571;41.610;25.380;2023-04-23T09:00:03;98447.22;;;18.99;37.11
40850;BME280;26571;41.610;25.380;2023-04-23T09:02:36;98439.53;;;18.59;37.28
40850;BME280;26571;41.610;25.380;2023-04-23T09:05:05;98434.50;;;18.51;39.23
40850;BME280;26571;41.610;25.380;2023-04-23T09:07:32;98439.69;;;18.65;39.06
40850;BME280;26571;41.610;25.380;2023-04-23T09:09:58;98436.22;;;18.89;38.21
40850;BME280;26571;41.610;25.380;2023-04-23T09:12:23;98437.88;;;18.90;38.13
40850;BME280;26571;41.610;25.380;2023-04-23T09:14:49;98433.91;;;19.18;38.09
40850;BME280;26571;41.610;25.380;2023-04-23T09:17:19;98429.03;;;19.51;36.49
40850;BME280;26571;41.610;25.380;2023-04-23T09:19:45;98382.69;;;18.66;36.79
40850;BME280;26571;41.610;25.380;2023-04-23T09:22:11;98435.41;;;18.89;38.03
40850;BME280;26571;41.610;25.380;2023-04-23T09:24:40;98433.09;;;18.74;38.63
40850;BME280;26571;41.610;25.380;2023-04-23T09:27:06;98438.06;;;18.64;38.59
40850;BME280;26571;41.610;25.380;2023-04-23T09:29:31;98425.88;;;18.49;38.14
40850;BME280;26571;41.610;25.380;2023-04-23T09:32:08;98426.88;;;18.30;38.90
40850;BME280;26571;41.610;25.380;2023-04-23T09:34:35;98423.28;;;18.68;39.23
40850;BME280;26571;41.610;25.380;2023-04-23T09:37:04;98430.03;;;18.95;38.25
40850;BME280;26571;41.610;25.380;2023-04-23T09:39:33;98422.25;;;18.94;39.09
40850;BME280;26571;41.610;25.380;2023-04-23T09:42:03;98414.19;;;19.19;37.82
40850;BME280;26571;41.610;25.380;2023-04-23T09:44:33;98418.19;;;19.28;39.79
40850;BME280;26571;41.610;25.380;2023-04-23T09:47:08;98414.38;;;19.91;42.16
40850;BME280;26571;41.610;25.380;2023-04-23T09:49:47;98405.84;;;20.24;37.31
40850;BME280;26571;41.610;25.380;2023-04-23T09:52:13;98412.50;;;19.91;36.32
40850;BME280;26571;41.610;25.380;2023-04-23T09:54:38;98397.28;;;19.92;36.46
40850;BME280;26571;41.610;25.380;2023-04-23T09:57:04;98406.47;;;19.66;37.00
40850;BME280;26571;41.610;25.380;2023-04-23T09:59:33;98403.81;;;19.66;39.07
40850;BME280;26571;41.610;25.380;2023-04-23T10:02:04;98397.50;;;20.20;39.66
40850;BME280;26571;41.610;25.380;2023-04-23T10:04:29;98396.63;;;20.08;35.58
40850;BME280;26571;41.610;25.380;2023-04-23T10:06:57;98399.16;;;19.91;35.60
40850;BME280;26571;41.610;25.380;2023-04-23T10:09:24;98390.69;;;19.94;36.11
40850;BME280;26571;41.610;25.380;2023-04-23T10:11:51;98385.25;;;19.71;37.31
40850;BME280;26571;41.610;25.380;2023-04-23T10:14:17;98389.84;;;19.63;37.71
40850;BME280;26571;41.610;25.380;2023-04-23T10:16:43;98392.22;;;19.72;37.68
40850;BME280;26571;41.610;25.380;2023-04-23T10:19:13;98383.53;;;19.76;37.66
40850;BME280;26571;41.610;25.380;2023-04-23T10:21:40;98372.34;;;19.68;36.91
40850;BME280;26571;41.610;25.380;2023-04-23T10:24:09;98376.38;;;19.22;38.01
40850;BME280;26571;41.610;25.380;2023-04-23T10:26:38;98371.19;;;19.45;39.43
40850;BME280;26571;41.610;25.380;2023-04-23T10:29:08;98366.22;;;20.09;41.31
40850;BME280;26571;41.610;25.380;2023-04-23T10:31:38;98359.31;;;20.67;39.08
40850;BME280;26571;41.610;25.380;2023-04-23T10:34:05;98320.13;;;20.60;35.88
40850;BME280;26571;41.610;25.380;2023-04-23T10:36:37;98354.44;;;20.75;36.72
40850;BME280;26571;41.610;25.380;2023-04-23T10:39:03;98357.34;;;20.74;36.96
40850;BME280;26571;41.610;25.380;2023-04-23T10:41:37;98347.41;;;21.09;35.72
40850;BME280;26571;41.610;25.380;2023-04-23T10:44:04;98357.22;;;20.80;35.47
40850;BME280;26571;41.610;25.380;2023-04-23T10:46:32;98352.91;;;20.44;34.31
40850;BME280;26571;41.610;25.380;2023-04-23T10:49:10;98329.28;;;20.29;34.27
40850;BME280;26571;41.610;25.380;2023-04-23T10:51:39;98353.47;;;20.34;34.94
40850;BME280;26571;41.610;25.380;2023-04-23T10:54:07;98346.13;;;20.42;35.21
40850;BME280;26571;41.610;25.380;2023-04-23T10:56:36;98314.19;;;20.35;34.06
40850;BME280;26571;41.610;25.380;2023-04-23T11:02:16;98338.44;;;19.68;33.75
40850;BME280;26571;41.610;25.380;2023-04-23T11:04:55;98343.69;;;19.75;34.68
40850;BME280;26571;41.610;25.380;2023-04-23T11:07:25;98334.47;;;19.89;33.44
40850;BME280;26571;41.610;25.380;2023-04-23T11:09:57;98334.78;;;19.93;33.07
40850;BME280;26571;41.610;25.380;2023-04-23T11:14:49;98339.56;;;20.02;33.06
40850;BME280;26571;41.610;25.380;2023-04-23T11:17:16;98327.19;;;19.78;33.47
40850;BME280;26571;41.610;25.380;2023-04-23T11:22:39;98324.22;;;19.86;33.62
40850;BME280;26571;41.610;25.380;2023-04-23T11:25:10;98317.88;;;19.69;32.43
40850;BME280;26571;41.610;25.380;2023-04-23T11:27:41;98318.75;;;19.81;33.97
40850;BME280;26571;41.610;25.380;2023-04-23T11:30:15;98316.25;;;20.21;33.13
40850;BME280;26571;41.610;25.380;2023-04-23T11:32:43;98323.63;;;20.49;31.28
40850;BME280;26571;41.610;25.380;2023-04-23T11:35:11;98324.59;;;20.01;30.27
40850;BME280;26571;41.610;25.380;2023-04-23T11:37:42;98316.56;;;20.01;31.43
40850;BME280;26571;41.610;25.380;2023-04-23T11:40:10;98306.97;;;20.35;30.93
40850;BME280;26571;41.610;25.380;2023-04-23T11:42:42;98295.56;;;20.63;29.51
40850;BME280;26571;41.610;25.380;2023-04-23T11:45:17;98312.19;;;20.30;30.68
40850;BME280;26571;41.610;25.380;2023-04-23T11:47:45;98311.84;;;19.61;32.19
40850;BME280;26571;41.610;25.380;2023-04-23T11:50:19;98308.84;;;19.21;33.21
40850;BME280;26571;41.610;25.380;2023-04-23T11:52:46;98311.00;;;19.31;34.53
40850;BME280;26571;41.610;25.380;2023-04-23T11:55:11;98313.13;;;19.41;32.00
40850;BME280;26571;41.610;25.380;2023-04-23T11:57:42;98307.81;;;19.52;33.39
40850;BME280;26571;41.610;25.380;2023-04-23T12:02:51;98255.25;;;19.95;34.00
40850;BME280;26571;41.610;25.380;2023-04-23T12:05:44;98292.09;;;20.04;33.12
40850;BME280;26571;41.610;25.380;2023-04-23T12:08:20;98304.09;;;19.83;31.66
40850;BME280;26571;41.610;25.380;2023-04-23T12:10:46;98301.66;;;19.82;31.11
40850;BME280;26571;41.610;25.380;2023-04-23T12:13:13;98294.31;;;19.66;31.31
40850;BME280;26571;41.610;25.380;2023-04-23T12:16:10;98268.22;;;19.79;32.99
40850;BME280;26571;41.610;25.380;2023-04-23T12:18:39;98284.25;;;19.49;31.92
40850;BME280;26571;41.610;25.380;2023-04-23T12:21:07;98281.22;;;19.46;32.51
40850;BME280;26571;41.610;25.380;2023-04-23T12:23:35;98262.06;;;19.19;32.70
40850;BME280;26571;41.610;25.380;2023-04-23T12:26:01;98279.94;;;19.48;32.82
40850;BME280;26571;41.610;25.380;2023-04-23T12:28:27;98282.84;;;19.17;33.33
40850;BME280;26571;41.610;25.380;2023-04-23T12:30:58;98241.91;;;18.74;35.42
40850;BME280;26571;41.610;25.380;2023-04-23T12:33:28;98280.41;;;19.15;35.34
40850;BME280;26571;41.610;25.380;2023-04-23T12:35:53;98274.81;;;19.35;33.33
40850;BME280;26571;41.610;25.380;2023-04-23T12:38:23;98266.94;;;19.40;33.73
40850;BME280;26571;41.610;25.380;2023-04-23T12:40:53;98272.16;;;19.77;35.65
40850;BME280;26571;41.610;25.380;2023-04-23T12:43:19;98276.75;;;20.00;35.28
40850;BME280;26571;41.610;25.380;2023-04-23T12:45:45;98270.69;;;20.28;36.04
40850;BME280;26571;41.610;25.380;2023-04-23T12:48:11;98243.63;;;20.36;35.62
40850;BME280;26571;41.610;25.380;2023-04-23T12:50:37;98270.81;;;20.56;32.49
40850;BME280;26571;41.610;25.380;2023-04-23T12:53:03;98261.41;;;20.65;31.88
40850;BME280;26571;41.610;25.380;2023-04-23T12:55:28;98266.03;;;20.70;32.57